Nyomtatás

Az év utolsó repülése

2014. december 31., 19:54szerző: Tihanyi Tamás www.feol.hu

 Börgönd – Hagyományosan a börgöndi repülőtéren töltötte az esztendő utolsó napját a székesfehérvári Albatrosz Repülő Egyesület.

http://duol.hu/data/cikk/166/9557/cikk_1669557/LL-20141231-repter-szilveszter.jpg

Az Albatrosz Repülő Egyesület ejtőernyősei felszállás előtt, egy jelképes pezsgővel. Ezer méterről ugrottak idén utoljára
Fotó: Lovász Lilla

Sokan kihasználták az évszakhoz képest remek repülőidőt december 31-én az Albatrosz Repülő Egyesület tagjai közül. Minden gépüket kitolták a hangárokból és fel is szálltak velük a hideg, de napfényes ég felé, hogy így búcsúzzanak a 2014-es évtől, amelynek csak az egyik nagyszerű (bár a vihar miatt félbeszakadt) eseménye volt a légiparádé. Az ejtőernyősök ezer méterről ereszkedtek alá, ők ezzel ünnepeltek, a virslit pedig Józsa Dávid vitorlázó Európa-bajnoki bronzérmes műrepülő pilóta, a klub legeredményesebb tagja főzte és kínálta a társaknak a repülősök bázisán. Az év utolsó napja jó alkalom volt ahhoz is, hogy két felszállás között értékelje a közelmúltat Szilády Dezső, az ARE elnöke. „Érdekes év volt, sok küzdelemmel és sok szép sikerrel, az egyesületnek sikerült az előrelépés és ezzel a börgöndi leszállóhely egyike lett az ország legsikeresebb repülőtereinek. Van okunk a reménységre, hiszen a közelmúltban rendeződött a terület jogi helyzete, megszülettek azok a döntések, amelyekkel a repülőtér visszakerült a városhoz. Székesfehérvár vezetése és a repülőegyesület ezzel egészen új dimenzióban kezdheti meg a fejlesztéseket, láthatja a jövőt”.

Youtube video: https://www.youtube.com/watch?v=cB6Hz4kByRI&feature=player_embedded

Élőkép

Információk

Albatrosz Repülő Egyesület
8000 Székesfehérvár,
Radványi utca 6.

Adószám:
19092908-2-07

Bankszámla szám:
Budapest Bank
10102952-01361819-00000001

Telefon: +36 30 9598-897

Telephey: Börgönd repülőtér

Börgöndi repülõtér

LHBP METAR/TAF

[source: ADDS]
METAR
TAF LHBP 290500Z 2906/3006 11005KT 3000 BR NSC TEMPO 2906/2908 VRB03KT 1500 FZBCFG BR BKN002 BECMG 2906/2910 15007KT 7000 NSW SCT020 BKN060 TEMPO 2910/2919 VRB03KT 3000 -SN BKN015 OVC025 PROB30 TEMPO 2914/2917 1000 SN BKN005 OVC015 TEMPO 2919/3003 5000 BR NSC BECMG 3002/3005 14012KT 3000 -SNRA SCT005 BKN010 TAF
TAF LHBP 290500Z 2906/3006 11005KT 3000 BR NSC TEMPO 2906/2908 VRB03KT 1500 FZBCFG BR BKN002 BECMG 2906/2910 15007KT 7000 NSW SCT020 BKN060 TEMPO 2910/2919 VRB03KT 3000 -SN BKN015 OVC025 PROB30 TEMPO 2914/2917 1000 SN BKN005 OVC015 TEMPO 2919/3003 5000 BR NSC BECMG 3002/3005 14012KT 3000 -SNRA SCT005 BKN010 =
SR / SS: 06:16 / 15:46 UTC (Börgönd 2015-01-29)
Hungarian Chinese (Simplified) Croatian Czech English Finnish French German Hebrew Italian Japanese Polish Portuguese Romanian Russian Serbian Slovak Slovenian Spanish

Belépés tagoknak